sensor_id;sensor_type;location;lat;lon;timestamp;P1;durP1;ratioP1;P2;durP2;ratioP2
30247;SDS011;17063;50.892;4.702;2023-04-01T00:00:26;2.70;;;1.00;;
30247;SDS011;17063;50.892;4.702;2023-04-01T00:02:53;8.77;;;1.20;;
30247;SDS011;17063;50.892;4.702;2023-04-01T00:05:21;4.73;;;1.00;;
30247;SDS011;17063;50.892;4.702;2023-04-01T00:07:48;7.23;;;0.80;;
30247;SDS011;17063;50.892;4.702;2023-04-01T00:10:15;2.27;;;0.70;;
30247;SDS011;17063;50.892;4.702;2023-04-01T00:12:42;5.40;;;1.07;;
30247;SDS011;17063;50.892;4.702;2023-04-01T00:15:09;3.80;;;0.87;;
30247;SDS011;17063;50.892;4.702;2023-04-01T00:17:37;2.37;;;0.77;;
30247;SDS011;17063;50.892;4.702;2023-04-01T00:20:05;3.20;;;0.83;;
30247;SDS011;17063;50.892;4.702;2023-04-01T00:22:34;4.33;;;1.27;;
30247;SDS011;17063;50.892;4.702;2023-04-01T00:25:01;4.20;;;0.90;;
30247;SDS011;17063;50.892;4.702;2023-04-01T00:27:29;2.20;;;0.83;;
30247;SDS011;17063;50.892;4.702;2023-04-01T00:29:56;3.53;;;0.93;;
30247;SDS011;17063;50.892;4.702;2023-04-01T00:32:23;2.10;;;0.80;;
30247;SDS011;17063;50.892;4.702;2023-04-01T00:34:50;3.27;;;1.10;;
30247;SDS011;17063;50.892;4.702;2023-04-01T00:37:19;3.80;;;1.03;;
30247;SDS011;17063;50.892;4.702;2023-04-01T00:39:47;2.43;;;0.80;;
30247;SDS011;17063;50.892;4.702;2023-04-01T00:42:14;2.70;;;0.87;;
30247;SDS011;17063;50.892;4.702;2023-04-01T00:44:41;1.83;;;1.00;;
30247;SDS011;17063;50.892;4.702;2023-04-01T00:47:08;2.10;;;0.73;;
30247;SDS011;17063;50.892;4.702;2023-04-01T00:49:39;4.17;;;1.17;;
30247;SDS011;17063;50.892;4.702;2023-04-01T00:52:07;5.17;;;0.77;;
30247;SDS011;17063;50.892;4.702;2023-04-01T00:54:35;3.43;;;1.00;;
30247;SDS011;17063;50.892;4.702;2023-04-01T00:57:06;4.67;;;0.80;;
30247;SDS011;17063;50.892;4.702;2023-04-01T00:59:37;2.57;;;0.80;;
30247;SDS011;17063;50.892;4.702;2023-04-01T01:02:08;1.40;;;0.67;;
30247;SDS011;17063;50.892;4.702;2023-04-01T01:04:37;1.90;;;0.70;;
30247;SDS011;17063;50.892;4.702;2023-04-01T01:10:10;2.97;;;0.93;;
30247;SDS011;17063;50.892;4.702;2023-04-01T01:15:58;1.00;;;0.60;;
30247;SDS011;17063;50.892;4.702;2023-04-01T01:18:35;2.97;;;0.80;;
30247;SDS011;17063;50.892;4.702;2023-04-01T01:34:43;1.37;;;0.73;;
30247;SDS011;17063;50.892;4.702;2023-04-01T01:37:20;3.80;;;0.80;;
30247;SDS011;17063;50.892;4.702;2023-04-01T01:39:51;1.07;;;0.97;;
30247;SDS011;17063;50.892;4.702;2023-04-01T01:42:21;3.23;;;0.80;;
30247;SDS011;17063;50.892;4.702;2023-04-01T01:44:49;2.33;;;0.83;;
30247;SDS011;17063;50.892;4.702;2023-04-01T01:47:19;2.43;;;0.80;;
30247;SDS011;17063;50.892;4.702;2023-04-01T01:49:47;1.97;;;0.90;;
30247;SDS011;17063;50.892;4.702;2023-04-01T01:52:16;1.23;;;0.70;;
30247;SDS011;17063;50.892;4.702;2023-04-01T01:54:47;2.13;;;0.80;;
30247;SDS011;17063;50.892;4.702;2023-04-01T01:57:15;1.70;;;0.70;;
30247;SDS011;17063;50.892;4.702;2023-04-01T01:59:46;3.33;;;0.70;;
30247;SDS011;17063;50.892;4.702;2023-04-01T02:02:21;0.53;;;0.53;;
30247;SDS011;17063;50.892;4.702;2023-04-01T02:04:49;2.03;;;0.90;;
30247;SDS011;17063;50.892;4.702;2023-04-01T02:07:18;1.70;;;0.60;;
30247;SDS011;17063;50.892;4.702;2023-04-01T02:09:48;2.83;;;0.77;;
30247;SDS011;17063;50.892;4.702;2023-04-01T02:12:15;1.93;;;0.80;;
30247;SDS011;17063;50.892;4.702;2023-04-01T02:17:22;4.03;;;1.10;;
30247;SDS011;17063;50.892;4.702;2023-04-01T02:19:57;3.00;;;1.00;;
30247;SDS011;17063;50.892;4.702;2023-04-01T02:22:28;2.50;;;1.20;;
30247;SDS011;17063;50.892;4.702;2023-04-01T02:24:57;4.23;;;1.40;;
30247;SDS011;17063;50.892;4.702;2023-04-01T02:27:26;3.27;;;1.33;;
30247;SDS011;17063;50.892;4.702;2023-04-01T02:29:54;2.80;;;1.20;;
30247;SDS011;17063;50.892;4.702;2023-04-01T02:32:21;2.20;;;1.10;;
30247;SDS011;17063;50.892;4.702;2023-04-01T02:34:48;2.20;;;1.10;;
30247;SDS011;17063;50.892;4.702;2023-04-01T02:37:15;3.00;;;1.10;;
30247;SDS011;17063;50.892;4.702;2023-04-01T02:39:42;3.20;;;1.00;;
30247;SDS011;17063;50.892;4.702;2023-04-01T02:42:09;2.20;;;0.90;;
30247;SDS011;17063;50.892;4.702;2023-04-01T02:44:36;2.03;;;1.30;;
30247;SDS011;17063;50.892;4.702;2023-04-01T02:47:03;2.30;;;1.63;;
30247;SDS011;17063;50.892;4.702;2023-04-01T02:49:30;2.67;;;1.27;;
30247;SDS011;17063;50.892;4.702;2023-04-01T02:51:57;1.67;;;1.40;;
30247;SDS011;17063;50.892;4.702;2023-04-01T02:54:24;1.50;;;1.40;;
30247;SDS011;17063;50.892;4.702;2023-04-01T02:56:51;2.50;;;1.30;;
30247;SDS011;17063;50.892;4.702;2023-04-01T02:59:18;4.57;;;1.63;;
30247;SDS011;17063;50.892;4.702;2023-04-01T03:01:45;3.80;;;1.40;;
30247;SDS011;17063;50.892;4.702;2023-04-01T03:04:12;2.27;;;1.40;;
30247;SDS011;17063;50.892;4.702;2023-04-01T03:06:38;3.23;;;1.50;;
30247;SDS011;17063;50.892;4.702;2023-04-01T03:09:05;3.10;;;1.57;;
30247;SDS011;17063;50.892;4.702;2023-04-01T03:11:32;2.63;;;1.50;;
30247;SDS011;17063;50.892;4.702;2023-04-01T03:13:59;4.33;;;1.47;;
30247;SDS011;17063;50.892;4.702;2023-04-01T03:16:26;2.73;;;1.20;;
30247;SDS011;17063;50.892;4.702;2023-04-01T03:18:53;2.87;;;1.40;;
30247;SDS011;17063;50.892;4.702;2023-04-01T03:21:23;4.50;;;1.40;;
30247;SDS011;17063;50.892;4.702;2023-04-01T03:23:50;6.93;;;1.70;;
30247;SDS011;17063;50.892;4.702;2023-04-01T03:26:18;4.77;;;1.40;;
30247;SDS011;17063;50.892;4.702;2023-04-01T03:28:45;5.77;;;1.50;;
30247;SDS011;17063;50.892;4.702;2023-04-01T03:31:12;4.00;;;1.40;;
30247;SDS011;17063;50.892;4.702;2023-04-01T03:33:46;5.40;;;1.60;;
30247;SDS011;17063;50.892;4.702;2023-04-01T03:36:13;4.23;;;1.57;;
30247;SDS011;17063;50.892;4.702;2023-04-01T03:38:40;5.57;;;2.13;;
30247;SDS011;17063;50.892;4.702;2023-04-01T03:41:11;6.87;;;2.50;;
30247;SDS011;17063;50.892;4.702;2023-04-01T03:43:39;5.73;;;2.17;;
30247;SDS011;17063;50.892;4.702;2023-04-01T03:46:06;4.93;;;2.03;;
30247;SDS011;17063;50.892;4.702;2023-04-01T03:48:33;3.50;;;2.13;;
30247;SDS011;17063;50.892;4.702;2023-04-01T03:51:00;5.80;;;2.30;;
30247;SDS011;17063;50.892;4.702;2023-04-01T03:53:28;9.40;;;2.50;;
30247;SDS011;17063;50.892;4.702;2023-04-01T03:56:02;8.97;;;2.40;;
30247;SDS011;17063;50.892;4.702;2023-04-01T03:58:31;6.30;;;2.47;;
30247;SDS011;17063;50.892;4.702;2023-04-01T04:01:00;7.73;;;2.83;;
30247;SDS011;17063;50.892;4.702;2023-04-01T04:03:27;5.73;;;3.00;;
30247;SDS011;17063;50.892;4.702;2023-04-01T04:05:55;8.40;;;3.10;;
30247;SDS011;17063;50.892;4.702;2023-04-01T04:08:22;10.00;;;3.40;;
30247;SDS011;17063;50.892;4.702;2023-04-01T04:10:56;10.27;;;3.20;;
30247;SDS011;17063;50.892;4.702;2023-04-01T04:13:23;4.77;;;2.97;;
30247;SDS011;17063;50.892;4.702;2023-04-01T04:15:58;7.17;;;3.33;;
30247;SDS011;17063;50.892;4.702;2023-04-01T04:18:25;8.70;;;3.27;;
30247;SDS011;17063;50.892;4.702;2023-04-01T04:20:52;7.60;;;3.30;;
30247;SDS011;17063;50.892;4.702;2023-04-01T04:23:19;7.57;;;3.60;;
30247;SDS011;17063;50.892;4.702;2023-04-01T04:26:00;11.43;;;3.40;;
30247;SDS011;17063;50.892;4.702;2023-04-01T04:28:29;10.80;;;4.50;;
30247;SDS011;17063;50.892;4.702;2023-04-01T04:30:57;12.40;;;4.73;;
30247;SDS011;17063;50.892;4.702;2023-04-01T04:33:25;8.50;;;4.07;;
30247;SDS011;17063;50.892;4.702;2023-04-01T04:35:54;10.07;;;3.80;;
30247;SDS011;17063;50.892;4.702;2023-04-01T04:38:22;7.20;;;4.00;;
30247;SDS011;17063;50.892;4.702;2023-04-01T04:40:49;8.90;;;3.30;;
30247;SDS011;17063;50.892;4.702;2023-04-01T04:43:16;7.10;;;3.43;;
30247;SDS011;17063;50.892;4.702;2023-04-01T04:45:44;6.73;;;3.10;;
30247;SDS011;17063;50.892;4.702;2023-04-01T04:48:11;4.53;;;3.00;;
30247;SDS011;17063;50.892;4.702;2023-04-01T04:50:43;3.97;;;2.80;;
30247;SDS011;17063;50.892;4.702;2023-04-01T04:53:16;5.27;;;2.70;;
30247;SDS011;17063;50.892;4.702;2023-04-01T04:55:45;6.23;;;2.47;;
30247;SDS011;17063;50.892;4.702;2023-04-01T04:58:36;5.07;;;2.60;;
30247;SDS011;17063;50.892;4.702;2023-04-01T05:01:11;3.33;;;2.13;;
30247;SDS011;17063;50.892;4.702;2023-04-01T05:03:39;5.17;;;2.37;;
30247;SDS011;17063;50.892;4.702;2023-04-01T05:06:07;2.87;;;2.10;;
30247;SDS011;17063;50.892;4.702;2023-04-01T05:08:36;3.00;;;2.23;;
30247;SDS011;17063;50.892;4.702;2023-04-01T05:11:18;5.23;;;2.37;;
30247;SDS011;17063;50.892;4.702;2023-04-01T05:13:46;3.63;;;2.30;;
30247;SDS011;17063;50.892;4.702;2023-04-01T05:16:15;3.17;;;2.10;;
30247;SDS011;17063;50.892;4.702;2023-04-01T05:18:43;4.17;;;1.60;;
30247;SDS011;17063;50.892;4.702;2023-04-01T05:21:10;6.53;;;2.93;;
30247;SDS011;17063;50.892;4.702;2023-04-01T05:23:38;2.60;;;1.40;;
30247;SDS011;17063;50.892;4.702;2023-04-01T05:26:06;2.33;;;1.40;;
30247;SDS011;17063;50.892;4.702;2023-04-01T05:28:34;4.10;;;1.37;;
30247;SDS011;17063;50.892;4.702;2023-04-01T05:31:01;2.53;;;1.50;;
30247;SDS011;17063;50.892;4.702;2023-04-01T05:33:33;5.97;;;1.60;;
30247;SDS011;17063;50.892;4.702;2023-04-01T05:36:19;1.60;;;1.50;;
30247;SDS011;17063;50.892;4.702;2023-04-01T05:38:47;1.70;;;1.60;;
30247;SDS011;17063;50.892;4.702;2023-04-01T05:41:16;1.50;;;1.40;;
30247;SDS011;17063;50.892;4.702;2023-04-01T05:43:44;1.10;;;1.10;;
30247;SDS011;17063;50.892;4.702;2023-04-01T05:46:31;2.70;;;1.30;;
30247;SDS011;17063;50.892;4.702;2023-04-01T05:49:13;1.70;;;1.10;;
30247;SDS011;17063;50.892;4.702;2023-04-01T05:51:40;1.60;;;1.00;;
30247;SDS011;17063;50.892;4.702;2023-04-01T05:54:07;1.07;;;0.87;;
30247;SDS011;17063;50.892;4.702;2023-04-01T05:56:34;1.03;;;1.00;;
30247;SDS011;17063;50.892;4.702;2023-04-01T05:59:02;1.40;;;1.27;;
30247;SDS011;17063;50.892;4.702;2023-04-01T06:01:28;1.83;;;1.30;;
30247;SDS011;17063;50.892;4.702;2023-04-01T06:03:55;1.50;;;1.40;;
30247;SDS011;17063;50.892;4.702;2023-04-01T06:06:25;1.73;;;1.63;;
30247;SDS011;17063;50.892;4.702;2023-04-01T06:09:10;1.83;;;1.50;;
30247;SDS011;17063;50.892;4.702;2023-04-01T06:11:52;2.60;;;1.63;;
30247;SDS011;17063;50.892;4.702;2023-04-01T06:28:54;4.17;;;2.37;;
30247;SDS011;17063;50.892;4.702;2023-04-01T06:46:04;4.70;;;2.80;;
30247;SDS011;17063;50.892;4.702;2023-04-01T06:54:42;7.67;;;3.10;;
30247;SDS011;17063;50.892;4.702;2023-04-01T06:57:34;4.43;;;3.20;;
30247;SDS011;17063;50.892;4.702;2023-04-01T07:00:11;2.70;;;2.50;;
30247;SDS011;17063;50.892;4.702;2023-04-01T07:05:53;4.77;;;2.60;;
30247;SDS011;17063;50.892;4.702;2023-04-01T07:08:25;5.13;;;2.77;;
30247;SDS011;17063;50.892;4.702;2023-04-01T07:10:58;6.17;;;3.00;;
30247;SDS011;17063;50.892;4.702;2023-04-01T07:14:04;7.23;;;3.20;;
30247;SDS011;17063;50.892;4.702;2023-04-01T07:22:50;7.83;;;3.13;;
30247;SDS011;17063;50.892;4.702;2023-04-01T07:25:45;4.10;;;3.10;;
30247;SDS011;17063;50.892;4.702;2023-04-01T07:28:39;3.23;;;2.70;;
30247;SDS011;17063;50.892;4.702;2023-04-01T07:34:20;3.33;;;2.63;;
30247;SDS011;17063;50.892;4.702;2023-04-01T07:36:55;5.60;;;2.50;;
30247;SDS011;17063;50.892;4.702;2023-04-01T07:45:31;1.50;;;0.87;;
30247;SDS011;17063;50.892;4.702;2023-04-01T07:51:03;2.50;;;0.77;;
30247;SDS011;17063;50.892;4.702;2023-04-01T07:59:54;0.80;;;0.80;;
30247;SDS011;17063;50.892;4.702;2023-04-01T08:05:29;1.53;;;1.43;;
30247;SDS011;17063;50.892;4.702;2023-04-01T08:22:27;1.37;;;0.63;;
30247;SDS011;17063;50.892;4.702;2023-04-01T08:25:00;0.50;;;0.50;;
30247;SDS011;17063;50.892;4.702;2023-04-01T08:27:41;0.70;;;0.50;;
30247;SDS011;17063;50.892;4.702;2023-04-01T08:30:18;0.43;;;0.43;;
30247;SDS011;17063;50.892;4.702;2023-04-01T08:33:05;0.50;;;0.50;;
30247;SDS011;17063;50.892;4.702;2023-04-01T08:35:40;0.43;;;0.40;;
30247;SDS011;17063;50.892;4.702;2023-04-01T08:38:21;0.63;;;0.40;;
30247;SDS011;17063;50.892;4.702;2023-04-01T08:41:00;0.43;;;0.43;;
30247;SDS011;17063;50.892;4.702;2023-04-01T08:49:56;0.80;;;0.80;;
30247;SDS011;17063;50.892;4.702;2023-04-01T08:55:44;1.03;;;0.60;;
30247;SDS011;17063;50.892;4.702;2023-04-01T08:58:22;1.20;;;0.70;;
30247;SDS011;17063;50.892;4.702;2023-04-01T09:01:25;0.80;;;0.80;;
30247;SDS011;17063;50.892;4.702;2023-04-01T09:06:51;1.57;;;1.00;;
30247;SDS011;17063;50.892;4.702;2023-04-01T09:20:47;2.00;;;0.87;;
30247;SDS011;17063;50.892;4.702;2023-04-01T09:23:35;1.47;;;0.80;;
30247;SDS011;17063;50.892;4.702;2023-04-01T09:37:45;0.83;;;0.83;;
30247;SDS011;17063;50.892;4.702;2023-04-01T09:46:31;2.30;;;1.00;;
30247;SDS011;17063;50.892;4.702;2023-04-01T09:54:45;0.93;;;0.87;;
30247;SDS011;17063;50.892;4.702;2023-04-01T09:57:24;2.77;;;1.00;;
30247;SDS011;17063;50.892;4.702;2023-04-01T10:11:43;1.60;;;1.40;;
30247;SDS011;17063;50.892;4.702;2023-04-01T10:25:57;1.53;;;1.43;;
30247;SDS011;17063;50.892;4.702;2023-04-01T10:43:02;2.00;;;1.60;;
30247;SDS011;17063;50.892;4.702;2023-04-01T10:46:13;2.50;;;2.27;;
30247;SDS011;17063;50.892;4.702;2023-04-01T10:52:29;4.40;;;1.67;;
30247;SDS011;17063;50.892;4.702;2023-04-01T11:05:00;3.03;;;1.30;;
30247;SDS011;17063;50.892;4.702;2023-04-01T11:07:55;0.77;;;0.77;;
30247;SDS011;17063;50.892;4.702;2023-04-01T11:10:55;2.03;;;1.07;;
30247;SDS011;17063;50.892;4.702;2023-04-01T11:27:50;2.67;;;0.80;;
30247;SDS011;17063;50.892;4.702;2023-04-01T11:42:14;0.93;;;0.70;;
30247;SDS011;17063;50.892;4.702;2023-04-01T11:45:23;1.80;;;0.77;;
30247;SDS011;17063;50.892;4.702;2023-04-01T11:51:39;0.83;;;0.67;;
30247;SDS011;17063;50.892;4.702;2023-04-01T11:57:34;1.60;;;0.60;;
30247;SDS011;17063;50.892;4.702;2023-04-01T12:00:21;0.93;;;0.70;;
30247;SDS011;17063;50.892;4.702;2023-04-01T12:05:52;1.07;;;0.80;;
30247;SDS011;17063;50.892;4.702;2023-04-01T12:14:44;1.40;;;0.97;;
30247;SDS011;17063;50.892;4.702;2023-04-01T12:25:44;0.60;;;0.60;;
30247;SDS011;17063;50.892;4.702;2023-04-01T12:34:13;1.27;;;0.73;;
30247;SDS011;17063;50.892;4.702;2023-04-01T12:39:49;0.70;;;0.70;;
30247;SDS011;17063;50.892;4.702;2023-04-01T12:54:17;1.10;;;1.00;;
30247;SDS011;17063;50.892;4.702;2023-04-01T13:00:52;1.03;;;0.90;;
30247;SDS011;17063;50.892;4.702;2023-04-01T13:06:19;0.80;;;0.80;;
30247;SDS011;17063;50.892;4.702;2023-04-01T13:09:25;0.60;;;0.60;;
30247;SDS011;17063;50.892;4.702;2023-04-01T13:42:38;0.60;;;0.60;;
30247;SDS011;17063;50.892;4.702;2023-04-01T13:45:17;0.80;;;0.80;;
30247;SDS011;17063;50.892;4.702;2023-04-01T13:48:23;0.80;;;0.70;;
30247;SDS011;17063;50.892;4.702;2023-04-01T14:11:31;0.73;;;0.60;;
30247;SDS011;17063;50.892;4.702;2023-04-01T14:35:56;2.73;;;1.83;;
30247;SDS011;17063;50.892;4.702;2023-04-01T14:41:51;4.17;;;2.00;;
30247;SDS011;17063;50.892;4.702;2023-04-01T14:44:57;2.77;;;2.00;;
30247;SDS011;17063;50.892;4.702;2023-04-01T14:47:39;2.87;;;1.90;;
30247;SDS011;17063;50.892;4.702;2023-04-01T14:50:31;3.13;;;2.10;;
30247;SDS011;17063;50.892;4.702;2023-04-01T14:53:17;2.83;;;2.23;;
30247;SDS011;17063;50.892;4.702;2023-04-01T14:55:53;3.63;;;2.97;;
30247;SDS011;17063;50.892;4.702;2023-04-01T14:58:23;2.27;;;2.07;;
30247;SDS011;17063;50.892;4.702;2023-04-01T15:23:56;0.90;;;0.90;;
30247;SDS011;17063;50.892;4.702;2023-04-01T15:42:32;1.37;;;1.00;;
30247;SDS011;17063;50.892;4.702;2023-04-01T15:45:26;1.10;;;1.00;;
30247;SDS011;17063;50.892;4.702;2023-04-01T15:59:24;1.30;;;1.20;;
30247;SDS011;17063;50.892;4.702;2023-04-01T16:04:51;2.27;;;1.23;;
30247;SDS011;17063;50.892;4.702;2023-04-01T16:24:12;2.87;;;1.50;;
30247;SDS011;17063;50.892;4.702;2023-04-01T16:26:50;1.30;;;1.20;;
30247;SDS011;17063;50.892;4.702;2023-04-01T16:37:39;1.57;;;1.30;;
30247;SDS011;17063;50.892;4.702;2023-04-01T16:40:31;1.50;;;1.10;;
30247;SDS011;17063;50.892;4.702;2023-04-01T16:43:25;1.20;;;0.90;;
30247;SDS011;17063;50.892;4.702;2023-04-01T16:56:55;1.83;;;1.73;;
30247;SDS011;17063;50.892;4.702;2023-04-01T16:59:37;3.00;;;2.00;;
30247;SDS011;17063;50.892;4.702;2023-04-01T17:04:57;1.90;;;1.80;;
30247;SDS011;17063;50.892;4.702;2023-04-01T17:07:30;2.07;;;1.80;;
30247;SDS011;17063;50.892;4.702;2023-04-01T17:15:21;2.10;;;1.90;;
30247;SDS011;17063;50.892;4.702;2023-04-01T17:23:27;2.13;;;1.97;;
30247;SDS011;17063;50.892;4.702;2023-04-01T17:26:03;2.27;;;2.13;;
30247;SDS011;17063;50.892;4.702;2023-04-01T17:28:44;2.33;;;2.10;;
30247;SDS011;17063;50.892;4.702;2023-04-01T17:36:36;2.10;;;2.00;;
30247;SDS011;17063;50.892;4.702;2023-04-01T17:39:33;2.40;;;2.00;;
30247;SDS011;17063;50.892;4.702;2023-04-01T17:53:18;2.20;;;2.00;;
30247;SDS011;17063;50.892;4.702;2023-04-01T17:58:32;2.10;;;1.90;;
30247;SDS011;17063;50.892;4.702;2023-04-01T18:17:18;2.50;;;2.30;;
30247;SDS011;17063;50.892;4.702;2023-04-01T18:19:48;3.30;;;2.40;;
30247;SDS011;17063;50.892;4.702;2023-04-01T18:25:32;2.80;;;2.40;;
30247;SDS011;17063;50.892;4.702;2023-04-01T18:30:43;2.53;;;2.33;;
30247;SDS011;17063;50.892;4.702;2023-04-01T18:33:18;2.73;;;2.53;;
30247;SDS011;17063;50.892;4.702;2023-04-01T18:35:58;4.23;;;2.70;;
30247;SDS011;17063;50.892;4.702;2023-04-01T18:38:39;2.73;;;2.53;;
30247;SDS011;17063;50.892;4.702;2023-04-01T18:43:58;3.23;;;2.93;;
30247;SDS011;17063;50.892;4.702;2023-04-01T18:46:49;3.07;;;2.77;;
30247;SDS011;17063;50.892;4.702;2023-04-01T18:49:33;3.50;;;3.20;;
30247;SDS011;17063;50.892;4.702;2023-04-01T18:52:10;3.23;;;2.70;;
30247;SDS011;17063;50.892;4.702;2023-04-01T18:54:45;5.10;;;3.30;;
30247;SDS011;17063;50.892;4.702;2023-04-01T18:57:15;4.87;;;3.40;;
30247;SDS011;17063;50.892;4.702;2023-04-01T19:10:01;3.50;;;3.20;;
30247;SDS011;17063;50.892;4.702;2023-04-01T19:18:38;3.90;;;2.80;;
30247;SDS011;17063;50.892;4.702;2023-04-01T19:29:39;4.57;;;3.93;;
30247;SDS011;17063;50.892;4.702;2023-04-01T19:43:19;3.90;;;3.37;;
30247;SDS011;17063;50.892;4.702;2023-04-01T19:46:00;6.77;;;4.67;;
30247;SDS011;17063;50.892;4.702;2023-04-01T20:02:35;4.73;;;3.70;;
30247;SDS011;17063;50.892;4.702;2023-04-01T20:08:05;4.90;;;4.10;;
30247;SDS011;17063;50.892;4.702;2023-04-01T20:13:23;7.10;;;4.50;;
30247;SDS011;17063;50.892;4.702;2023-04-01T20:16:12;10.97;;;5.10;;
30247;SDS011;17063;50.892;4.702;2023-04-01T20:19:03;5.67;;;3.93;;
30247;SDS011;17063;50.892;4.702;2023-04-01T20:21:36;7.30;;;4.10;;
30247;SDS011;17063;50.892;4.702;2023-04-01T20:24:17;7.47;;;4.07;;
30247;SDS011;17063;50.892;4.702;2023-04-01T20:26:50;7.53;;;4.30;;
30247;SDS011;17063;50.892;4.702;2023-04-01T20:32:14;7.80;;;4.40;;
30247;SDS011;17063;50.892;4.702;2023-04-01T20:40:40;7.43;;;5.07;;
30247;SDS011;17063;50.892;4.702;2023-04-01T20:45:58;9.60;;;5.90;;
30247;SDS011;17063;50.892;4.702;2023-04-01T20:51:13;11.40;;;7.07;;
30247;SDS011;17063;50.892;4.702;2023-04-01T21:17:33;21.40;;;9.63;;
30247;SDS011;17063;50.892;4.702;2023-04-01T21:27:09;18.17;;;10.23;;
30247;SDS011;17063;50.892;4.702;2023-04-01T21:35:07;14.63;;;9.30;;
30247;SDS011;17063;50.892;4.702;2023-04-01T21:40:46;11.97;;;7.87;;
30247;SDS011;17063;50.892;4.702;2023-04-01T21:43:34;13.33;;;7.63;;
30247;SDS011;17063;50.892;4.702;2023-04-01T21:54:55;7.80;;;5.30;;
30247;SDS011;17063;50.892;4.702;2023-04-01T21:58:03;8.57;;;6.17;;
30247;SDS011;17063;50.892;4.702;2023-04-01T22:00:45;8.73;;;5.83;;
30247;SDS011;17063;50.892;4.702;2023-04-01T22:06:28;6.60;;;5.10;;
30247;SDS011;17063;50.892;4.702;2023-04-01T22:19:59;12.27;;;8.30;;
30247;SDS011;17063;50.892;4.702;2023-04-01T22:25:25;13.57;;;9.37;;
30247;SDS011;17063;50.892;4.702;2023-04-01T22:28:00;14.03;;;9.43;;
30247;SDS011;17063;50.892;4.702;2023-04-01T22:30:37;11.60;;;9.20;;
30247;SDS011;17063;50.892;4.702;2023-04-01T22:33:18;11.40;;;8.40;;
30247;SDS011;17063;50.892;4.702;2023-04-01T22:36:04;10.83;;;8.73;;
30247;SDS011;17063;50.892;4.702;2023-04-01T22:44:02;10.80;;;8.93;;
30247;SDS011;17063;50.892;4.702;2023-04-01T22:46:41;12.03;;;8.60;;
30247;SDS011;17063;50.892;4.702;2023-04-01T22:49:39;11.60;;;9.10;;
30247;SDS011;17063;50.892;4.702;2023-04-01T22:52:23;11.17;;;8.97;;
30247;SDS011;17063;50.892;4.702;2023-04-01T22:55:08;12.83;;;9.13;;
30247;SDS011;17063;50.892;4.702;2023-04-01T22:57:48;11.00;;;9.10;;
30247;SDS011;17063;50.892;4.702;2023-04-01T23:05:49;14.30;;;8.33;;
30247;SDS011;17063;50.892;4.702;2023-04-01T23:10:54;10.10;;;8.20;;
30247;SDS011;17063;50.892;4.702;2023-04-01T23:13:27;9.83;;;7.87;;
30247;SDS011;17063;50.892;4.702;2023-04-01T23:15:58;9.40;;;7.37;;
30247;SDS011;17063;50.892;4.702;2023-04-01T23:23:52;8.30;;;6.93;;
30247;SDS011;17063;50.892;4.702;2023-04-01T23:28:53;10.13;;;7.93;;
30247;SDS011;17063;50.892;4.702;2023-04-01T23:39:10;11.13;;;8.63;;
30247;SDS011;17063;50.892;4.702;2023-04-01T23:41:46;10.20;;;8.23;;
30247;SDS011;17063;50.892;4.702;2023-04-01T23:44:13;10.90;;;7.67;;
30247;SDS011;17063;50.892;4.702;2023-04-01T23:46:40;9.47;;;7.67;;
30247;SDS011;17063;50.892;4.702;2023-04-01T23:49:17;9.60;;;7.77;;
30247;SDS011;17063;50.892;4.702;2023-04-01T23:51:55;11.70;;;7.33;;
30247;SDS011;17063;50.892;4.702;2023-04-01T23:54:31;9.33;;;7.47;;
30247;SDS011;17063;50.892;4.702;2023-04-01T23:56:58;9.03;;;7.40;;
30247;SDS011;17063;50.892;4.702;2023-04-01T23:59:30;8.10;;;6.57;;
